sensor_id;sensor_type;location;lat;lon;timestamp;P1;durP1;ratioP1;P2;durP2;ratioP2
59271;SDS011;45043;51.068;7.026;2023-07-13T00:01:54;5.13;;;2.40;;
59271;SDS011;45043;51.068;7.026;2023-07-13T00:04:55;5.53;;;2.10;;
59271;SDS011;45043;51.068;7.026;2023-07-13T00:07:55;3.87;;;2.40;;
59271;SDS011;45043;51.068;7.026;2023-07-13T00:10:56;2.80;;;1.80;;
59271;SDS011;45043;51.068;7.026;2023-07-13T00:13:56;3.50;;;2.10;;
59271;SDS011;45043;51.068;7.026;2023-07-13T00:16:57;5.30;;;2.30;;
59271;SDS011;45043;51.068;7.026;2023-07-13T00:20:00;6.03;;;2.47;;
59271;SDS011;45043;51.068;7.026;2023-07-13T00:23:01;7.50;;;2.80;;
59271;SDS011;45043;51.068;7.026;2023-07-13T00:26:02;5.60;;;2.50;;
59271;SDS011;45043;51.068;7.026;2023-07-13T00:29:03;5.13;;;2.47;;
59271;SDS011;45043;51.068;7.026;2023-07-13T00:32:06;4.40;;;2.60;;
59271;SDS011;45043;51.068;7.026;2023-07-13T00:35:10;3.60;;;2.20;;
59271;SDS011;45043;51.068;7.026;2023-07-13T00:38:13;5.53;;;2.40;;
59271;SDS011;45043;51.068;7.026;2023-07-13T00:41:14;5.93;;;2.50;;
59271;SDS011;45043;51.068;7.026;2023-07-13T00:44:15;3.43;;;2.00;;
59271;SDS011;45043;51.068;7.026;2023-07-13T00:47:16;4.37;;;2.07;;
59271;SDS011;45043;51.068;7.026;2023-07-13T00:50:17;4.33;;;2.10;;
59271;SDS011;45043;51.068;7.026;2023-07-13T00:53:20;6.13;;;2.20;;
59271;SDS011;45043;51.068;7.026;2023-07-13T00:56:21;3.50;;;2.00;;
59271;SDS011;45043;51.068;7.026;2023-07-13T00:59:22;5.80;;;2.20;;
59271;SDS011;45043;51.068;7.026;2023-07-13T01:02:23;4.13;;;1.93;;
59271;SDS011;45043;51.068;7.026;2023-07-13T01:05:24;5.83;;;1.80;;
59271;SDS011;45043;51.068;7.026;2023-07-13T01:08:25;4.40;;;1.70;;
59271;SDS011;45043;51.068;7.026;2023-07-13T01:11:26;5.83;;;1.80;;
59271;SDS011;45043;51.068;7.026;2023-07-13T01:14:26;5.23;;;2.20;;
59271;SDS011;45043;51.068;7.026;2023-07-13T01:17:28;3.97;;;2.67;;
59271;SDS011;45043;51.068;7.026;2023-07-13T01:20:29;5.07;;;2.30;;
59271;SDS011;45043;51.068;7.026;2023-07-13T01:23:30;4.17;;;2.70;;
59271;SDS011;45043;51.068;7.026;2023-07-13T01:26:31;5.53;;;2.00;;
59271;SDS011;45043;51.068;7.026;2023-07-13T01:29:32;5.33;;;2.00;;
59271;SDS011;45043;51.068;7.026;2023-07-13T01:32:34;5.23;;;2.17;;
59271;SDS011;45043;51.068;7.026;2023-07-13T01:35:37;2.97;;;1.80;;
59271;SDS011;45043;51.068;7.026;2023-07-13T01:38:37;5.10;;;2.27;;
59271;SDS011;45043;51.068;7.026;2023-07-13T01:41:38;5.43;;;2.00;;
59271;SDS011;45043;51.068;7.026;2023-07-13T01:44:38;2.70;;;1.57;;
59271;SDS011;45043;51.068;7.026;2023-07-13T01:47:39;4.03;;;2.00;;
59271;SDS011;45043;51.068;7.026;2023-07-13T01:50:39;5.80;;;2.17;;
59271;SDS011;45043;51.068;7.026;2023-07-13T01:53:41;5.93;;;1.90;;
59271;SDS011;45043;51.068;7.026;2023-07-13T01:56:42;4.47;;;1.93;;
59271;SDS011;45043;51.068;7.026;2023-07-13T01:59:42;6.70;;;2.30;;
59271;SDS011;45043;51.068;7.026;2023-07-13T02:02:42;3.93;;;1.83;;
59271;SDS011;45043;51.068;7.026;2023-07-13T02:05:44;5.00;;;1.87;;
59271;SDS011;45043;51.068;7.026;2023-07-13T02:08:45;5.27;;;2.00;;
59271;SDS011;45043;51.068;7.026;2023-07-13T02:11:45;4.63;;;2.10;;
59271;SDS011;45043;51.068;7.026;2023-07-13T02:14:46;3.47;;;1.70;;
59271;SDS011;45043;51.068;7.026;2023-07-13T02:17:46;5.47;;;1.90;;
59271;SDS011;45043;51.068;7.026;2023-07-13T02:20:47;5.90;;;1.90;;
59271;SDS011;45043;51.068;7.026;2023-07-13T02:23:48;4.40;;;2.03;;
59271;SDS011;45043;51.068;7.026;2023-07-13T02:26:50;5.37;;;1.83;;
59271;SDS011;45043;51.068;7.026;2023-07-13T02:29:50;5.37;;;2.10;;
59271;SDS011;45043;51.068;7.026;2023-07-13T02:32:55;4.50;;;1.83;;
59271;SDS011;45043;51.068;7.026;2023-07-13T02:35:56;6.07;;;2.00;;
59271;SDS011;45043;51.068;7.026;2023-07-13T02:39:02;5.23;;;2.10;;
59271;SDS011;45043;51.068;7.026;2023-07-13T02:42:04;4.87;;;1.90;;
59271;SDS011;45043;51.068;7.026;2023-07-13T02:45:06;3.07;;;1.80;;
59271;SDS011;45043;51.068;7.026;2023-07-13T02:48:07;5.47;;;1.83;;
59271;SDS011;45043;51.068;7.026;2023-07-13T02:51:08;3.90;;;1.93;;
59271;SDS011;45043;51.068;7.026;2023-07-13T02:54:09;2.73;;;1.90;;
59271;SDS011;45043;51.068;7.026;2023-07-13T02:57:11;5.37;;;2.20;;
59271;SDS011;45043;51.068;7.026;2023-07-13T03:00:12;4.87;;;1.80;;
59271;SDS011;45043;51.068;7.026;2023-07-13T03:03:13;4.10;;;2.03;;
59271;SDS011;45043;51.068;7.026;2023-07-13T03:06:15;6.17;;;2.50;;
59271;SDS011;45043;51.068;7.026;2023-07-13T03:09:25;6.17;;;2.50;;
59271;SDS011;45043;51.068;7.026;2023-07-13T03:12:27;5.83;;;2.07;;
59271;SDS011;45043;51.068;7.026;2023-07-13T03:15:29;3.93;;;1.80;;
59271;SDS011;45043;51.068;7.026;2023-07-13T03:18:31;6.10;;;2.23;;
59271;SDS011;45043;51.068;7.026;2023-07-13T03:21:36;3.23;;;1.97;;
59271;SDS011;45043;51.068;7.026;2023-07-13T03:24:37;5.43;;;1.87;;
59271;SDS011;45043;51.068;7.026;2023-07-13T03:27:38;3.63;;;1.77;;
59271;SDS011;45043;51.068;7.026;2023-07-13T03:30:41;5.67;;;1.90;;
59271;SDS011;45043;51.068;7.026;2023-07-13T03:33:42;4.00;;;1.70;;
59271;SDS011;45043;51.068;7.026;2023-07-13T03:36:44;3.43;;;2.30;;
59271;SDS011;45043;51.068;7.026;2023-07-13T03:39:46;4.60;;;1.90;;
59271;SDS011;45043;51.068;7.026;2023-07-13T03:42:48;3.60;;;1.80;;
59271;SDS011;45043;51.068;7.026;2023-07-13T03:45:51;4.83;;;1.87;;
59271;SDS011;45043;51.068;7.026;2023-07-13T03:48:51;4.30;;;1.87;;
59271;SDS011;45043;51.068;7.026;2023-07-13T03:51:52;4.17;;;2.10;;
59271;SDS011;45043;51.068;7.026;2023-07-13T03:54:53;3.33;;;2.00;;
59271;SDS011;45043;51.068;7.026;2023-07-13T03:58:24;4.57;;;1.90;;
59271;SDS011;45043;51.068;7.026;2023-07-13T04:01:43;4.43;;;1.90;;
59271;SDS011;45043;51.068;7.026;2023-07-13T04:04:46;4.03;;;2.23;;
59271;SDS011;45043;51.068;7.026;2023-07-13T04:07:47;3.80;;;1.70;;
59271;SDS011;45043;51.068;7.026;2023-07-13T04:10:47;4.17;;;1.87;;
59271;SDS011;45043;51.068;7.026;2023-07-13T04:13:48;3.27;;;1.80;;
59271;SDS011;45043;51.068;7.026;2023-07-13T04:16:49;6.70;;;2.10;;
59271;SDS011;45043;51.068;7.026;2023-07-13T04:19:49;8.33;;;2.30;;
59271;SDS011;45043;51.068;7.026;2023-07-13T04:22:50;4.43;;;1.83;;
59271;SDS011;45043;51.068;7.026;2023-07-13T04:25:51;4.93;;;2.03;;
59271;SDS011;45043;51.068;7.026;2023-07-13T04:28:53;6.10;;;2.13;;
59271;SDS011;45043;51.068;7.026;2023-07-13T04:31:53;4.10;;;2.00;;
59271;SDS011;45043;51.068;7.026;2023-07-13T04:34:54;7.43;;;2.23;;
59271;SDS011;45043;51.068;7.026;2023-07-13T04:37:55;5.50;;;2.10;;
59271;SDS011;45043;51.068;7.026;2023-07-13T04:40:57;3.63;;;2.17;;
59271;SDS011;45043;51.068;7.026;2023-07-13T04:43:59;4.90;;;2.00;;
59271;SDS011;45043;51.068;7.026;2023-07-13T04:47:00;5.27;;;2.30;;
59271;SDS011;45043;51.068;7.026;2023-07-13T04:50:00;5.57;;;2.00;;
59271;SDS011;45043;51.068;7.026;2023-07-13T04:53:01;2.97;;;1.90;;
59271;SDS011;45043;51.068;7.026;2023-07-13T04:56:02;3.83;;;1.90;;
59271;SDS011;45043;51.068;7.026;2023-07-13T04:59:03;6.77;;;2.00;;
59271;SDS011;45043;51.068;7.026;2023-07-13T05:02:03;6.73;;;1.93;;
59271;SDS011;45043;51.068;7.026;2023-07-13T05:05:05;17.20;;;2.43;;
59271;SDS011;45043;51.068;7.026;2023-07-13T05:08:06;7.27;;;2.70;;
59271;SDS011;45043;51.068;7.026;2023-07-13T05:11:07;3.90;;;1.90;;
59271;SDS011;45043;51.068;7.026;2023-07-13T05:14:08;8.33;;;2.30;;
59271;SDS011;45043;51.068;7.026;2023-07-13T05:17:09;6.70;;;2.23;;
59271;SDS011;45043;51.068;7.026;2023-07-13T05:20:10;4.80;;;2.10;;
59271;SDS011;45043;51.068;7.026;2023-07-13T05:23:10;5.27;;;2.13;;
59271;SDS011;45043;51.068;7.026;2023-07-13T05:26:11;4.67;;;1.93;;
59271;SDS011;45043;51.068;7.026;2023-07-13T05:29:11;5.17;;;2.30;;
59271;SDS011;45043;51.068;7.026;2023-07-13T05:32:12;4.07;;;1.83;;
59271;SDS011;45043;51.068;7.026;2023-07-13T05:35:12;6.27;;;2.27;;
59271;SDS011;45043;51.068;7.026;2023-07-13T05:38:13;4.70;;;2.30;;
59271;SDS011;45043;51.068;7.026;2023-07-13T05:41:13;5.53;;;2.50;;
59271;SDS011;45043;51.068;7.026;2023-07-13T05:44:14;3.73;;;2.03;;
59271;SDS011;45043;51.068;7.026;2023-07-13T05:47:14;6.83;;;2.40;;
59271;SDS011;45043;51.068;7.026;2023-07-13T05:50:15;7.13;;;2.30;;
59271;SDS011;45043;51.068;7.026;2023-07-13T05:53:15;5.70;;;2.60;;
59271;SDS011;45043;51.068;7.026;2023-07-13T05:56:16;6.47;;;2.60;;
59271;SDS011;45043;51.068;7.026;2023-07-13T05:59:17;5.10;;;1.93;;
59271;SDS011;45043;51.068;7.026;2023-07-13T06:02:18;6.13;;;2.50;;
59271;SDS011;45043;51.068;7.026;2023-07-13T06:05:19;6.50;;;2.70;;
59271;SDS011;45043;51.068;7.026;2023-07-13T06:08:20;6.03;;;2.50;;
59271;SDS011;45043;51.068;7.026;2023-07-13T06:11:21;5.30;;;2.53;;
59271;SDS011;45043;51.068;7.026;2023-07-13T06:14:23;5.23;;;2.17;;
59271;SDS011;45043;51.068;7.026;2023-07-13T06:17:23;5.43;;;2.30;;
59271;SDS011;45043;51.068;7.026;2023-07-13T06:20:24;6.13;;;2.43;;
59271;SDS011;45043;51.068;7.026;2023-07-13T06:23:25;6.63;;;2.80;;
59271;SDS011;45043;51.068;7.026;2023-07-13T06:26:25;8.37;;;2.37;;
59271;SDS011;45043;51.068;7.026;2023-07-13T06:29:26;6.27;;;2.87;;
59271;SDS011;45043;51.068;7.026;2023-07-13T06:32:27;9.77;;;2.80;;
59271;SDS011;45043;51.068;7.026;2023-07-13T06:35:27;7.53;;;2.60;;
59271;SDS011;45043;51.068;7.026;2023-07-13T06:38:27;6.83;;;2.60;;
59271;SDS011;45043;51.068;7.026;2023-07-13T06:41:28;9.90;;;3.03;;
59271;SDS011;45043;51.068;7.026;2023-07-13T06:44:31;10.07;;;2.97;;
59271;SDS011;45043;51.068;7.026;2023-07-13T06:47:32;7.00;;;2.50;;
59271;SDS011;45043;51.068;7.026;2023-07-13T06:50:32;6.77;;;2.67;;
59271;SDS011;45043;51.068;7.026;2023-07-13T06:53:35;8.90;;;2.73;;
59271;SDS011;45043;51.068;7.026;2023-07-13T06:56:35;7.23;;;2.93;;
59271;SDS011;45043;51.068;7.026;2023-07-13T06:59:36;7.43;;;2.60;;
59271;SDS011;45043;51.068;7.026;2023-07-13T07:02:37;7.17;;;2.67;;
59271;SDS011;45043;51.068;7.026;2023-07-13T07:05:37;5.23;;;2.63;;
59271;SDS011;45043;51.068;7.026;2023-07-13T07:08:37;6.50;;;2.90;;
59271;SDS011;45043;51.068;7.026;2023-07-13T07:11:38;7.50;;;2.70;;
59271;SDS011;45043;51.068;7.026;2023-07-13T07:14:38;6.53;;;3.00;;
59271;SDS011;45043;51.068;7.026;2023-07-13T07:17:39;5.70;;;2.60;;
59271;SDS011;45043;51.068;7.026;2023-07-13T07:20:39;7.80;;;2.70;;
59271;SDS011;45043;51.068;7.026;2023-07-13T07:23:40;8.13;;;2.77;;
59271;SDS011;45043;51.068;7.026;2023-07-13T07:26:42;4.93;;;2.50;;
59271;SDS011;45043;51.068;7.026;2023-07-13T07:29:42;9.10;;;2.80;;
59271;SDS011;45043;51.068;7.026;2023-07-13T07:32:43;9.93;;;3.20;;
59271;SDS011;45043;51.068;7.026;2023-07-13T07:35:44;8.53;;;3.03;;
59271;SDS011;45043;51.068;7.026;2023-07-13T07:38:44;7.80;;;2.97;;
59271;SDS011;45043;51.068;7.026;2023-07-13T07:41:45;6.90;;;3.17;;
59271;SDS011;45043;51.068;7.026;2023-07-13T07:44:45;5.27;;;2.90;;
59271;SDS011;45043;51.068;7.026;2023-07-13T07:47:46;10.37;;;3.67;;
59271;SDS011;45043;51.068;7.026;2023-07-13T07:50:46;8.50;;;3.60;;
59271;SDS011;45043;51.068;7.026;2023-07-13T07:53:47;11.67;;;3.97;;
59271;SDS011;45043;51.068;7.026;2023-07-13T07:56:48;5.93;;;3.50;;
59271;SDS011;45043;51.068;7.026;2023-07-13T07:59:49;7.57;;;3.60;;
59271;SDS011;45043;51.068;7.026;2023-07-13T08:02:49;10.57;;;3.60;;
59271;SDS011;45043;51.068;7.026;2023-07-13T08:05:52;8.03;;;3.53;;
59271;SDS011;45043;51.068;7.026;2023-07-13T08:08:54;9.33;;;3.50;;
59271;SDS011;45043;51.068;7.026;2023-07-13T08:11:55;9.33;;;3.57;;
59271;SDS011;45043;51.068;7.026;2023-07-13T08:14:55;9.17;;;3.53;;
59271;SDS011;45043;51.068;7.026;2023-07-13T08:18:00;7.77;;;3.23;;
59271;SDS011;45043;51.068;7.026;2023-07-13T08:21:05;7.77;;;3.93;;
59271;SDS011;45043;51.068;7.026;2023-07-13T08:24:05;10.17;;;3.37;;
59271;SDS011;45043;51.068;7.026;2023-07-13T08:27:06;7.37;;;3.43;;
59271;SDS011;45043;51.068;7.026;2023-07-13T08:30:07;8.67;;;3.80;;
59271;SDS011;45043;51.068;7.026;2023-07-13T08:33:08;8.30;;;4.07;;
59271;SDS011;45043;51.068;7.026;2023-07-13T08:36:09;8.17;;;3.50;;
59271;SDS011;45043;51.068;7.026;2023-07-13T08:39:09;8.17;;;3.70;;
59271;SDS011;45043;51.068;7.026;2023-07-13T08:48:46;9.63;;;3.53;;
59271;SDS011;45043;51.068;7.026;2023-07-13T08:51:56;8.03;;;3.17;;
59271;SDS011;45043;51.068;7.026;2023-07-13T08:55:06;8.30;;;3.60;;
59271;SDS011;45043;51.068;7.026;2023-07-13T08:58:14;8.87;;;3.23;;
59271;SDS011;45043;51.068;7.026;2023-07-13T09:01:33;5.60;;;3.50;;
59271;SDS011;45043;51.068;7.026;2023-07-13T09:04:49;8.17;;;3.70;;
59271;SDS011;45043;51.068;7.026;2023-07-13T09:11:23;9.17;;;3.70;;
59271;SDS011;45043;51.068;7.026;2023-07-13T09:17:41;6.13;;;3.40;;
59271;SDS011;45043;51.068;7.026;2023-07-13T09:20:49;8.00;;;4.03;;
59271;SDS011;45043;51.068;7.026;2023-07-13T09:23:54;5.23;;;3.17;;
59271;SDS011;45043;51.068;7.026;2023-07-13T09:26:58;6.03;;;3.20;;
59271;SDS011;45043;51.068;7.026;2023-07-13T09:33:15;7.93;;;3.03;;
59271;SDS011;45043;51.068;7.026;2023-07-13T09:36:26;8.17;;;3.07;;
59271;SDS011;45043;51.068;7.026;2023-07-13T09:39:29;7.73;;;2.93;;
59271;SDS011;45043;51.068;7.026;2023-07-13T09:42:33;5.37;;;2.63;;
59271;SDS011;45043;51.068;7.026;2023-07-13T09:45:34;10.83;;;3.40;;
59271;SDS011;45043;51.068;7.026;2023-07-13T09:48:35;5.67;;;3.10;;
59271;SDS011;45043;51.068;7.026;2023-07-13T09:51:43;7.43;;;3.00;;
59271;SDS011;45043;51.068;7.026;2023-07-13T09:54:45;6.40;;;3.33;;
59271;SDS011;45043;51.068;7.026;2023-07-13T09:57:48;8.13;;;3.27;;
59271;SDS011;45043;51.068;7.026;2023-07-13T10:00:54;7.47;;;2.90;;
59271;SDS011;45043;51.068;7.026;2023-07-13T10:03:57;7.17;;;2.77;;
59271;SDS011;45043;51.068;7.026;2023-07-13T10:07:08;8.53;;;2.83;;
59271;SDS011;45043;51.068;7.026;2023-07-13T10:10:14;5.40;;;2.90;;
59271;SDS011;45043;51.068;7.026;2023-07-13T10:13:32;5.37;;;2.73;;
59271;SDS011;45043;51.068;7.026;2023-07-13T10:16:36;5.07;;;3.07;;
59271;SDS011;45043;51.068;7.026;2023-07-13T10:19:37;8.17;;;2.80;;
59271;SDS011;45043;51.068;7.026;2023-07-13T10:26:02;8.57;;;3.23;;
59271;SDS011;45043;51.068;7.026;2023-07-13T10:29:06;7.03;;;2.97;;
59271;SDS011;45043;51.068;7.026;2023-07-13T10:32:12;7.47;;;4.03;;
59271;SDS011;45043;51.068;7.026;2023-07-13T10:35:14;6.00;;;3.23;;
59271;SDS011;45043;51.068;7.026;2023-07-13T10:38:19;5.73;;;2.90;;
59271;SDS011;45043;51.068;7.026;2023-07-13T10:41:23;5.27;;;3.07;;
59271;SDS011;45043;51.068;7.026;2023-07-13T10:44:30;6.33;;;2.97;;
59271;SDS011;45043;51.068;7.026;2023-07-13T10:47:33;6.47;;;2.90;;
59271;SDS011;45043;51.068;7.026;2023-07-13T10:50:33;6.13;;;2.93;;
59271;SDS011;45043;51.068;7.026;2023-07-13T10:53:37;6.57;;;2.90;;
59271;SDS011;45043;51.068;7.026;2023-07-13T10:56:42;6.13;;;3.03;;
59271;SDS011;45043;51.068;7.026;2023-07-13T10:59:48;4.67;;;3.13;;
59271;SDS011;45043;51.068;7.026;2023-07-13T11:03:13;6.10;;;2.97;;
59271;SDS011;45043;51.068;7.026;2023-07-13T11:09:49;6.40;;;2.67;;
59271;SDS011;45043;51.068;7.026;2023-07-13T11:12:53;5.80;;;2.80;;
59271;SDS011;45043;51.068;7.026;2023-07-13T11:15:54;6.13;;;2.67;;
59271;SDS011;45043;51.068;7.026;2023-07-13T11:28:21;5.00;;;2.40;;
59271;SDS011;45043;51.068;7.026;2023-07-13T11:31:24;3.93;;;2.40;;
59271;SDS011;45043;51.068;7.026;2023-07-13T11:34:30;5.63;;;2.80;;
59271;SDS011;45043;51.068;7.026;2023-07-13T11:37:34;5.50;;;2.40;;
59271;SDS011;45043;51.068;7.026;2023-07-13T11:40:35;7.30;;;2.60;;
59271;SDS011;45043;51.068;7.026;2023-07-13T11:43:36;6.20;;;2.27;;
59271;SDS011;45043;51.068;7.026;2023-07-13T11:46:36;5.47;;;2.90;;
59271;SDS011;45043;51.068;7.026;2023-07-13T11:49:44;6.60;;;2.40;;
59271;SDS011;45043;51.068;7.026;2023-07-13T11:52:47;5.10;;;2.37;;
59271;SDS011;45043;51.068;7.026;2023-07-13T11:55:50;6.07;;;2.73;;
59271;SDS011;45043;51.068;7.026;2023-07-13T11:58:51;4.47;;;2.40;;
59271;SDS011;45043;51.068;7.026;2023-07-13T12:01:55;3.97;;;2.40;;
59271;SDS011;45043;51.068;7.026;2023-07-13T12:04:57;7.37;;;2.60;;
59271;SDS011;45043;51.068;7.026;2023-07-13T12:07:59;5.43;;;2.63;;
59271;SDS011;45043;51.068;7.026;2023-07-13T12:11:14;3.93;;;2.50;;
59271;SDS011;45043;51.068;7.026;2023-07-13T12:14:17;4.93;;;2.20;;
59271;SDS011;45043;51.068;7.026;2023-07-13T12:17:20;4.63;;;2.53;;
59271;SDS011;45043;51.068;7.026;2023-07-13T12:20:26;4.93;;;2.50;;
59271;SDS011;45043;51.068;7.026;2023-07-13T12:23:33;3.60;;;2.30;;
59271;SDS011;45043;51.068;7.026;2023-07-13T12:26:35;5.67;;;2.83;;
59271;SDS011;45043;51.068;7.026;2023-07-13T12:29:36;5.43;;;2.57;;
59271;SDS011;45043;51.068;7.026;2023-07-13T12:32:37;5.80;;;2.70;;
59271;SDS011;45043;51.068;7.026;2023-07-13T12:35:42;5.17;;;2.70;;
59271;SDS011;45043;51.068;7.026;2023-07-13T12:38:46;6.47;;;2.43;;
59271;SDS011;45043;51.068;7.026;2023-07-13T12:41:47;4.77;;;2.30;;
59271;SDS011;45043;51.068;7.026;2023-07-13T12:44:50;4.00;;;2.70;;
59271;SDS011;45043;51.068;7.026;2023-07-13T12:47:54;5.43;;;2.50;;
59271;SDS011;45043;51.068;7.026;2023-07-13T12:51:00;6.33;;;2.17;;
59271;SDS011;45043;51.068;7.026;2023-07-13T12:54:13;6.03;;;2.33;;
59271;SDS011;45043;51.068;7.026;2023-07-13T12:57:17;4.93;;;2.30;;
59271;SDS011;45043;51.068;7.026;2023-07-13T13:07:03;4.43;;;2.50;;
59271;SDS011;45043;51.068;7.026;2023-07-13T13:10:12;8.17;;;2.23;;
59271;SDS011;45043;51.068;7.026;2023-07-13T13:13:14;4.97;;;2.50;;
59271;SDS011;45043;51.068;7.026;2023-07-13T13:19:26;6.00;;;2.20;;
59271;SDS011;45043;51.068;7.026;2023-07-13T13:22:28;3.23;;;2.13;;
59271;SDS011;45043;51.068;7.026;2023-07-13T13:25:28;4.40;;;2.10;;
59271;SDS011;45043;51.068;7.026;2023-07-13T13:28:31;5.20;;;2.30;;
59271;SDS011;45043;51.068;7.026;2023-07-13T13:31:32;2.93;;;2.00;;
59271;SDS011;45043;51.068;7.026;2023-07-13T13:34:33;4.37;;;2.10;;
59271;SDS011;45043;51.068;7.026;2023-07-13T13:37:34;4.80;;;2.00;;
59271;SDS011;45043;51.068;7.026;2023-07-13T13:40:34;3.30;;;2.23;;
59271;SDS011;45043;51.068;7.026;2023-07-13T13:43:35;3.57;;;2.20;;
59271;SDS011;45043;51.068;7.026;2023-07-13T13:46:35;4.07;;;2.20;;
59271;SDS011;45043;51.068;7.026;2023-07-13T13:49:36;4.03;;;2.10;;
59271;SDS011;45043;51.068;7.026;2023-07-13T13:52:37;3.27;;;2.23;;
59271;SDS011;45043;51.068;7.026;2023-07-13T13:55:37;4.07;;;2.33;;
59271;SDS011;45043;51.068;7.026;2023-07-13T13:58:38;3.10;;;2.20;;
59271;SDS011;45043;51.068;7.026;2023-07-13T14:01:40;6.03;;;3.07;;
59271;SDS011;45043;51.068;7.026;2023-07-13T14:04:42;4.57;;;2.00;;
59271;SDS011;45043;51.068;7.026;2023-07-13T14:07:43;7.03;;;2.70;;
59271;SDS011;45043;51.068;7.026;2023-07-13T14:10:44;5.70;;;2.40;;
59271;SDS011;45043;51.068;7.026;2023-07-13T14:13:52;6.93;;;2.67;;
59271;SDS011;45043;51.068;7.026;2023-07-13T14:16:55;4.00;;;1.93;;
59271;SDS011;45043;51.068;7.026;2023-07-13T14:19:57;3.70;;;2.47;;
59271;SDS011;45043;51.068;7.026;2023-07-13T14:22:58;5.07;;;2.43;;
59271;SDS011;45043;51.068;7.026;2023-07-13T14:25:59;6.80;;;2.20;;
59271;SDS011;45043;51.068;7.026;2023-07-13T14:28:59;4.43;;;1.90;;
59271;SDS011;45043;51.068;7.026;2023-07-13T14:32:00;3.80;;;2.00;;
59271;SDS011;45043;51.068;7.026;2023-07-13T14:35:01;5.40;;;2.37;;
59271;SDS011;45043;51.068;7.026;2023-07-13T14:38:02;2.60;;;1.80;;
59271;SDS011;45043;51.068;7.026;2023-07-13T14:41:02;5.03;;;2.27;;
59271;SDS011;45043;51.068;7.026;2023-07-13T14:44:10;2.97;;;1.70;;
59271;SDS011;45043;51.068;7.026;2023-07-13T14:47:15;4.10;;;2.30;;
59271;SDS011;45043;51.068;7.026;2023-07-13T14:50:16;4.13;;;1.80;;
59271;SDS011;45043;51.068;7.026;2023-07-13T14:53:28;3.87;;;1.83;;
59271;SDS011;45043;51.068;7.026;2023-07-13T14:56:29;3.00;;;1.90;;
59271;SDS011;45043;51.068;7.026;2023-07-13T14:59:29;3.53;;;2.03;;
59271;SDS011;45043;51.068;7.026;2023-07-13T15:02:34;4.70;;;2.20;;
59271;SDS011;45043;51.068;7.026;2023-07-13T15:05:37;3.53;;;1.93;;
59271;SDS011;45043;51.068;7.026;2023-07-13T15:08:40;5.73;;;2.20;;
59271;SDS011;45043;51.068;7.026;2023-07-13T15:11:41;5.00;;;2.13;;
59271;SDS011;45043;51.068;7.026;2023-07-13T15:14:41;5.77;;;2.27;;
59271;SDS011;45043;51.068;7.026;2023-07-13T15:17:43;4.10;;;2.10;;
59271;SDS011;45043;51.068;7.026;2023-07-13T15:20:46;3.63;;;2.13;;
59271;SDS011;45043;51.068;7.026;2023-07-13T15:23:48;3.03;;;1.83;;
59271;SDS011;45043;51.068;7.026;2023-07-13T15:26:50;4.17;;;2.10;;
59271;SDS011;45043;51.068;7.026;2023-07-13T15:29:50;5.40;;;2.03;;
59271;SDS011;45043;51.068;7.026;2023-07-13T15:32:51;4.33;;;2.10;;
59271;SDS011;45043;51.068;7.026;2023-07-13T15:35:52;5.03;;;2.13;;
59271;SDS011;45043;51.068;7.026;2023-07-13T15:38:54;6.50;;;2.17;;
59271;SDS011;45043;51.068;7.026;2023-07-13T15:41:55;5.87;;;2.53;;
59271;SDS011;45043;51.068;7.026;2023-07-13T15:44:56;5.67;;;2.60;;
59271;SDS011;45043;51.068;7.026;2023-07-13T15:47:56;6.73;;;2.57;;
59271;SDS011;45043;51.068;7.026;2023-07-13T15:51:00;5.40;;;2.47;;
59271;SDS011;45043;51.068;7.026;2023-07-13T15:54:03;4.20;;;2.40;;
59271;SDS011;45043;51.068;7.026;2023-07-13T15:57:08;5.07;;;2.53;;
59271;SDS011;45043;51.068;7.026;2023-07-13T16:00:22;7.17;;;2.73;;
59271;SDS011;45043;51.068;7.026;2023-07-13T16:03:24;6.70;;;2.60;;
59271;SDS011;45043;51.068;7.026;2023-07-13T16:06:26;6.97;;;2.50;;
59271;SDS011;45043;51.068;7.026;2023-07-13T16:09:33;3.70;;;2.40;;
59271;SDS011;45043;51.068;7.026;2023-07-13T16:12:33;5.83;;;2.60;;
59271;SDS011;45043;51.068;7.026;2023-07-13T16:15:34;5.20;;;2.43;;
59271;SDS011;45043;51.068;7.026;2023-07-13T16:18:36;5.90;;;2.37;;
59271;SDS011;45043;51.068;7.026;2023-07-13T16:21:40;5.37;;;2.50;;
59271;SDS011;45043;51.068;7.026;2023-07-13T16:24:51;8.10;;;2.70;;
59271;SDS011;45043;51.068;7.026;2023-07-13T16:27:56;4.73;;;2.73;;
59271;SDS011;45043;51.068;7.026;2023-07-13T16:31:03;5.33;;;3.00;;
59271;SDS011;45043;51.068;7.026;2023-07-13T16:34:05;4.37;;;2.73;;
59271;SDS011;45043;51.068;7.026;2023-07-13T16:37:11;3.23;;;2.37;;
59271;SDS011;45043;51.068;7.026;2023-07-13T16:40:25;5.33;;;2.60;;
59271;SDS011;45043;51.068;7.026;2023-07-13T16:43:27;4.97;;;2.40;;
59271;SDS011;45043;51.068;7.026;2023-07-13T16:46:28;9.27;;;2.60;;
59271;SDS011;45043;51.068;7.026;2023-07-13T16:49:30;5.63;;;1.97;;
59271;SDS011;45043;51.068;7.026;2023-07-13T16:52:32;4.37;;;2.30;;
59271;SDS011;45043;51.068;7.026;2023-07-13T16:55:32;4.97;;;2.10;;
59271;SDS011;45043;51.068;7.026;2023-07-13T16:58:33;3.00;;;2.37;;
59271;SDS011;45043;51.068;7.026;2023-07-13T17:01:35;7.00;;;2.27;;
59271;SDS011;45043;51.068;7.026;2023-07-13T17:04:36;5.40;;;2.23;;
59271;SDS011;45043;51.068;7.026;2023-07-13T17:07:36;6.40;;;2.30;;
59271;SDS011;45043;51.068;7.026;2023-07-13T17:10:37;4.73;;;2.30;;
59271;SDS011;45043;51.068;7.026;2023-07-13T17:13:38;2.93;;;2.40;;
59271;SDS011;45043;51.068;7.026;2023-07-13T17:16:38;5.07;;;2.13;;
59271;SDS011;45043;51.068;7.026;2023-07-13T17:19:39;4.17;;;1.83;;
59271;SDS011;45043;51.068;7.026;2023-07-13T17:22:39;4.43;;;2.10;;
59271;SDS011;45043;51.068;7.026;2023-07-13T17:25:40;5.97;;;2.17;;
59271;SDS011;45043;51.068;7.026;2023-07-13T17:28:40;6.33;;;1.90;;
59271;SDS011;45043;51.068;7.026;2023-07-13T17:31:43;3.97;;;2.03;;
59271;SDS011;45043;51.068;7.026;2023-07-13T17:34:44;2.87;;;2.00;;
59271;SDS011;45043;51.068;7.026;2023-07-13T17:37:45;3.73;;;2.50;;
59271;SDS011;45043;51.068;7.026;2023-07-13T17:40:46;3.93;;;2.40;;
59271;SDS011;45043;51.068;7.026;2023-07-13T17:43:46;4.03;;;2.10;;
59271;SDS011;45043;51.068;7.026;2023-07-13T17:46:47;4.07;;;2.30;;
59271;SDS011;45043;51.068;7.026;2023-07-13T17:49:49;3.27;;;2.20;;
59271;SDS011;45043;51.068;7.026;2023-07-13T17:52:49;2.43;;;1.87;;
59271;SDS011;45043;51.068;7.026;2023-07-13T17:55:50;2.33;;;2.00;;
59271;SDS011;45043;51.068;7.026;2023-07-13T17:58:54;4.80;;;3.90;;
59271;SDS011;45043;51.068;7.026;2023-07-13T18:01:54;4.57;;;3.20;;
59271;SDS011;45043;51.068;7.026;2023-07-13T18:04:55;3.67;;;2.60;;
59271;SDS011;45043;51.068;7.026;2023-07-13T18:07:58;3.87;;;2.40;;
59271;SDS011;45043;51.068;7.026;2023-07-13T18:10:59;3.53;;;2.63;;
59271;SDS011;45043;51.068;7.026;2023-07-13T18:14:03;3.63;;;2.23;;
59271;SDS011;45043;51.068;7.026;2023-07-13T18:17:03;3.20;;;2.20;;
59271;SDS011;45043;51.068;7.026;2023-07-13T18:20:05;2.73;;;2.03;;
59271;SDS011;45043;51.068;7.026;2023-07-13T18:23:17;4.70;;;2.53;;
59271;SDS011;45043;51.068;7.026;2023-07-13T18:26:23;2.63;;;2.00;;
59271;SDS011;45043;51.068;7.026;2023-07-13T18:29:24;2.90;;;2.10;;
59271;SDS011;45043;51.068;7.026;2023-07-13T18:32:25;3.20;;;2.17;;
59271;SDS011;45043;51.068;7.026;2023-07-13T18:35:32;4.23;;;2.20;;
59271;SDS011;45043;51.068;7.026;2023-07-13T18:38:33;4.77;;;2.23;;
59271;SDS011;45043;51.068;7.026;2023-07-13T18:41:35;4.27;;;2.37;;
59271;SDS011;45043;51.068;7.026;2023-07-13T18:44:35;3.70;;;2.10;;
59271;SDS011;45043;51.068;7.026;2023-07-13T18:47:36;2.83;;;1.90;;
59271;SDS011;45043;51.068;7.026;2023-07-13T18:50:37;1.90;;;1.70;;
59271;SDS011;45043;51.068;7.026;2023-07-13T18:53:40;3.77;;;2.03;;
59271;SDS011;45043;51.068;7.026;2023-07-13T18:56:41;4.27;;;1.97;;
59271;SDS011;45043;51.068;7.026;2023-07-13T18:59:41;3.90;;;2.10;;
59271;SDS011;45043;51.068;7.026;2023-07-13T19:02:42;4.23;;;2.10;;